Time;durP1;ratioP1;P1;durP2;ratioP2;P2;SDS_P1;SDS_P2;PMS_P1;PMS_P2;Temp;Humidity;BMP_temperature;BMP_pressure;BME280_temperature;BME280_humidity;BME280_pressure;Samples;Min_cycle;Max_cycle;Signal;HPM_P1;HPM_P2
2021/10/07 00:00:59;;;;;;;5.45;2.28;;;10.20;99.90;;;;;;5020455;28;20041;-67
2021/10/07 00:03:27;;;;;;;4.15;2.53;;;10.30;99.90;;;;;;5019360;28;20021;-67
2021/10/07 00:05:54;;;;;;;5.85;2.25;;;10.20;99.90;;;;;;5019425;28;20112;-67
2021/10/07 00:08:22;;;;;;;3.85;2.25;;;10.20;99.90;;;;;;5021166;28;20029;-67
2021/10/07 00:10:49;;;;;;;4.75;2.75;;;10.30;99.90;;;;;;5021707;28;20072;-67
2021/10/07 00:13:16;;;;;;;5.13;2.65;;;10.30;99.90;;;;;;5021607;28;20030;-67
2021/10/07 00:15:43;;;;;;;6.03;2.28;;;10.30;99.90;;;;;;5020128;28;20333;-67
2021/10/07 00:18:11;;;;;;;7.45;2.90;;;10.30;99.90;;;;;;5021298;28;20026;-67
2021/10/07 00:20:38;;;;;;;5.28;2.55;;;10.30;99.90;;;;;;5021022;28;20040;-67
2021/10/07 00:23:05;;;;;;;3.53;2.13;;;10.40;99.90;;;;;;5020844;28;20025;-67
2021/10/07 00:25:33;;;;;;;3.47;2.47;;;10.40;99.90;;;;;;5020677;28;20101;-67
2021/10/07 00:28:10;;;;;;;5.82;3.00;;;10.40;99.90;;;;;;5019078;28;20045;-67
2021/10/07 00:30:40;;;;;;;5.90;2.90;;;10.40;99.90;;;;;;5019916;28;20026;-67
2021/10/07 00:33:14;;;;;;;5.65;2.75;;;10.50;99.90;;;;;;5019789;28;20049;-67
2021/10/07 00:36:02;;;;;;;7.35;2.70;;;10.50;99.90;;;;;;5020122;28;20038;-67
2021/10/07 00:41:17;;;;;;;3.72;2.00;;;10.50;99.90;;;;;;5019966;28;20044;-67
2021/10/07 00:43:44;;;;;;;5.75;2.67;;;10.50;99.90;;;;;;5019415;28;20044;-67
2021/10/07 00:46:11;;;;;;;6.00;3.65;;;10.50;99.90;;;;;;5019646;28;20026;-67
2021/10/07 00:48:39;;;;;;;5.07;2.90;;;10.50;99.90;;;;;;5020330;28;20018;-67
2021/10/07 00:51:06;;;;;;;7.25;2.78;;;10.50;99.90;;;;;;5020946;28;20386;-67
2021/10/07 00:53:34;;;;;;;5.68;2.85;;;10.50;99.90;;;;;;5021495;28;20310;-67
2021/10/07 00:56:02;;;;;;;7.43;2.70;;;10.50;99.90;;;;;;5020342;28;20026;-67
2021/10/07 00:58:29;;;;;;;5.35;2.72;;;10.50;99.90;;;;;;5020455;28;20018;-67
2021/10/07 01:00:57;;;;;;;4.53;2.58;;;10.50;99.90;;;;;;5019733;28;20029;-67
2021/10/07 01:03:25;;;;;;;3.47;2.45;;;10.50;99.90;;;;;;5020091;28;20033;-67
2021/10/07 01:05:52;;;;;;;4.22;2.45;;;10.50;99.90;;;;;;5020408;28;20318;-67
2021/10/07 01:08:20;;;;;;;4.20;2.45;;;10.50;99.90;;;;;;5019549;28;20045;-66
2021/10/07 01:10:48;;;;;;;5.20;2.92;;;10.50;99.90;;;;;;5019705;28;20032;-67
2021/10/07 01:13:16;;;;;;;6.05;2.80;;;10.50;99.90;;;;;;5019740;28;20025;-67
2021/10/07 01:15:44;;;;;;;6.70;2.97;;;10.50;99.90;;;;;;5018049;28;20350;-67
2021/10/07 01:18:12;;;;;;;6.63;3.20;;;10.40;99.90;;;;;;5019113;28;20018;-67
2021/10/07 01:20:41;;;;;;;5.05;3.00;;;10.40;99.90;;;;;;5019501;28;20101;-67
2021/10/07 01:23:09;;;;;;;6.45;3.50;;;10.30;99.90;;;;;;5018839;28;20338;-67
2021/10/07 01:25:37;;;;;;;5.18;3.28;;;10.30;99.90;;;;;;5017838;28;20022;-67
2021/10/07 01:28:05;;;;;;;5.05;3.17;;;10.20;99.90;;;;;;5027719;28;20415;-67
2021/10/07 01:30:32;;;;;;;6.18;3.63;;;10.20;99.90;;;;;;5021568;28;20037;-67
2021/10/07 01:33:00;;;;;;;6.90;3.75;;;10.10;99.90;;;;;;5039417;28;20026;-67
2021/10/07 01:35:27;;;;;;;5.82;3.78;;;10.10;99.90;;;;;;5039392;28;20401;-67
2021/10/07 01:37:55;;;;;;;7.90;3.97;;;10.10;99.90;;;;;;5039891;28;20045;-66
2021/10/07 01:40:22;;;;;;;10.70;4.40;;;10.10;99.90;;;;;;5039162;28;20026;-67
2021/10/07 01:42:49;;;;;;;7.60;3.97;;;10.00;99.90;;;;;;5039328;28;20029;-67
2021/10/07 01:45:18;;;;;;;6.47;4.13;;;10.00;99.90;;;;;;5039743;28;20018;-67
2021/10/07 01:47:45;;;;;;;7.35;3.72;;;9.90;99.90;;;;;;5039198;28;20022;-67
2021/10/07 01:50:14;;;;;;;6.65;3.92;;;9.90;99.90;;;;;;5038786;28;20305;-67
2021/10/07 01:52:42;;;;;;;7.05;4.32;;;9.80;99.90;;;;;;5038332;28;20021;-67
2021/10/07 01:55:11;;;;;;;7.97;4.43;;;9.80;99.90;;;;;;5038607;28;20029;-67
2021/10/07 01:57:38;;;;;;;6.63;4.20;;;9.80;99.90;;;;;;5038132;28;20033;-67
2021/10/07 02:00:14;;;;;;;6.30;3.53;;;9.80;99.90;;;;;;5038320;28;20021;-67
2021/10/07 02:02:42;;;;;;;17.00;3.97;;;9.80;99.90;;;;;;5038030;28;20026;-67
2021/10/07 02:05:09;;;;;;;9.20;4.65;;;9.80;99.90;;;;;;5020323;28;20022;-67
2021/10/07 02:07:37;;;;;;;11.40;4.82;;;9.90;99.90;;;;;;5038134;28;20100;-67
2021/10/07 02:10:09;;;;;;;8.55;3.67;;;9.90;99.90;;;;;;5038379;28;20104;-67
2021/10/07 02:12:36;;;;;;;8.02;4.10;;;9.90;99.90;;;;;;5038104;28;20029;-67
2021/10/07 02:15:05;;;;;;;8.52;3.90;;;10.00;99.90;;;;;;5039155;28;20093;-66
2021/10/07 02:17:32;;;;;;;7.75;4.03;;;10.00;99.90;;;;;;5038503;28;20326;-67
2021/10/07 02:19:59;;;;;;;7.78;4.35;;;10.00;99.90;;;;;;5038831;28;20018;-67
2021/10/07 02:22:27;;;;;;;9.80;4.63;;;10.00;99.90;;;;;;5038622;28;20401;-67
2021/10/07 02:24:54;;;;;;;8.10;4.03;;;10.00;99.90;;;;;;5038745;28;20028;-67
2021/10/07 02:27:21;;;;;;;9.27;4.88;;;10.10;99.90;;;;;;5004061;28;20042;-67
2021/10/07 02:29:49;;;;;;;9.43;4.30;;;10.10;99.90;;;;;;5020763;28;20029;-67
2021/10/07 02:32:23;;;;;;;7.85;4.28;;;10.10;99.90;;;;;;5038233;28;20032;-67
2021/10/07 02:34:51;;;;;;;7.38;4.43;;;10.10;99.90;;;;;;5037536;28;20076;-67
2021/10/07 02:37:18;;;;;;;7.43;4.50;;;10.10;99.90;;;;;;5037317;28;20033;-67
2021/10/07 02:39:46;;;;;;;8.70;4.45;;;10.20;99.90;;;;;;5037819;28;20052;-67
2021/10/07 02:42:13;;;;;;;7.90;4.80;;;10.20;99.90;;;;;;5037144;28;20021;-67
2021/10/07 02:44:41;;;;;;;7.70;4.72;;;10.20;99.90;;;;;;5037701;28;20316;-67
2021/10/07 02:47:08;;;;;;;10.43;5.30;;;10.20;99.90;;;;;;5037890;28;20022;-67
2021/10/07 02:49:36;;;;;;;8.88;4.78;;;10.20;99.90;;;;;;5037029;28;20104;-67
2021/10/07 02:52:03;;;;;;;9.02;4.72;;;10.20;99.90;;;;;;5037071;28;20026;-67
2021/10/07 02:54:31;;;;;;;9.05;4.22;;;10.30;99.90;;;;;;5037579;28;20075;-67
2021/10/07 02:56:59;;;;;;;8.27;4.72;;;10.30;99.90;;;;;;5020575;28;20029;-67
2021/10/07 02:59:27;;;;;;;8.35;4.35;;;10.30;99.90;;;;;;5038321;28;20036;-67
2021/10/07 03:01:54;;;;;;;7.72;4.55;;;10.30;99.90;;;;;;5037758;28;20032;-67
2021/10/07 03:04:21;;;;;;;7.20;4.10;;;10.30;99.90;;;;;;5037648;28;20021;-67
2021/10/07 03:06:49;;;;;;;10.25;4.25;;;10.40;99.90;;;;;;5037888;28;20025;-66
2021/10/07 03:09:16;;;;;;;8.98;4.78;;;10.30;99.90;;;;;;5038181;28;20100;-66
2021/10/07 03:11:44;;;;;;;8.63;4.90;;;10.40;99.90;;;;;;5038240;28;20370;-67
2021/10/07 03:14:12;;;;;;;6.68;4.05;;;10.40;99.90;;;;;;5037614;28;20014;-67
2021/10/07 03:16:39;;;;;;;9.98;4.53;;;10.40;99.90;;;;;;5036838;28;20046;-67
2021/10/07 03:19:07;;;;;;;9.43;4.55;;;10.40;99.90;;;;;;5019042;28;20307;-67
2021/10/07 03:21:34;;;;;;;6.63;4.30;;;10.40;99.90;;;;;;5019115;28;20113;-67
2021/10/07 03:24:02;;;;;;;8.05;4.78;;;10.40;99.90;;;;;;5036827;28;20026;-67
2021/10/07 03:26:30;;;;;;;11.10;4.65;;;10.40;99.90;;;;;;5036735;28;20022;-67
2021/10/07 03:28:57;;;;;;;8.23;4.80;;;10.40;99.90;;;;;;5036444;28;20037;-66
2021/10/07 03:31:25;;;;;;;8.13;4.68;;;10.40;99.90;;;;;;5037054;28;20017;-66
2021/10/07 03:33:52;;;;;;;9.80;5.20;;;10.40;99.90;;;;;;5036618;28;20022;-67
2021/10/07 03:36:20;;;;;;;9.52;4.88;;;10.40;99.90;;;;;;5019410;28;20422;-67
2021/10/07 03:38:49;;;;;;;7.95;4.53;;;10.50;99.90;;;;;;5037852;28;20022;-67
2021/10/07 03:41:16;;;;;;;11.07;4.72;;;10.40;99.90;;;;;;5037312;28;20025;-67
2021/10/07 03:43:45;;;;;;;7.88;4.80;;;10.50;99.90;;;;;;5037228;28;20026;-67
2021/10/07 03:46:17;;;;;;;12.73;5.45;;;10.40;99.90;;;;;;5019772;28;20025;-67
2021/10/07 03:48:48;;;;;;;10.93;5.75;;;10.40;99.90;;;;;;5037483;28;20402;-67
2021/10/07 03:51:15;;;;;;;7.88;5.10;;;10.40;99.90;;;;;;5037174;28;20444;-66
2021/10/07 03:53:43;;;;;;;9.32;4.82;;;10.40;99.90;;;;;;5037683;28;20055;-66
2021/10/07 03:56:10;;;;;;;10.07;5.20;;;10.40;99.90;;;;;;5036523;28;20441;-67
2021/10/07 03:58:38;;;;;;;7.88;4.85;;;10.40;99.90;;;;;;5036220;28;20030;-66
2021/10/07 04:01:05;;;;;;;10.05;5.00;;;10.40;99.90;;;;;;5036222;28;20425;-67
2021/10/07 04:03:32;;;;;;;9.45;4.63;;;10.40;99.90;;;;;;5036532;28;20357;-67
2021/10/07 04:05:59;;;;;;;9.30;5.22;;;10.40;99.90;;;;;;5036711;28;20018;-67
2021/10/07 04:08:27;;;;;;;11.35;5.40;;;10.40;99.90;;;;;;5036146;28;20020;-67
2021/10/07 04:10:56;;;;;;;11.40;5.43;;;10.40;99.90;;;;;;5018847;28;20299;-67
2021/10/07 04:13:25;;;;;;;9.27;5.30;;;10.40;99.90;;;;;;5036561;28;20021;-67
2021/10/07 04:15:53;;;;;;;9.48;5.38;;;10.40;99.90;;;;;;5036251;28;20030;-67
2021/10/07 04:18:21;;;;;;;11.45;5.32;;;10.40;99.90;;;;;;5037161;28;20345;-67
2021/10/07 04:20:49;;;;;;;12.35;5.22;;;10.40;99.90;;;;;;5019433;28;20029;-67
2021/10/07 04:23:18;;;;;;;10.75;4.63;;;10.50;99.90;;;;;;5037277;28;20483;-66
2021/10/07 04:25:46;;;;;;;10.32;5.30;;;10.40;99.90;;;;;;5037170;28;20394;-67
2021/10/07 04:28:13;;;;;;;9.15;5.10;;;10.40;99.90;;;;;;5036992;28;20096;-67
2021/10/07 04:30:41;;;;;;;11.30;5.15;;;10.40;99.90;;;;;;5036881;28;20017;-67
2021/10/07 04:33:10;;;;;;;10.13;5.13;;;10.40;99.90;;;;;;5019400;28;20083;-66
2021/10/07 04:35:39;;;;;;;11.35;5.38;;;10.40;99.90;;;;;;5037550;28;20052;-67
2021/10/07 04:38:07;;;;;;;10.55;5.18;;;10.40;99.90;;;;;;5039913;28;20017;-67
2021/10/07 04:40:35;;;;;;;11.00;5.68;;;10.40;99.90;;;;;;5039539;28;20515;-67
2021/10/07 04:43:03;;;;;;;12.02;5.80;;;10.40;99.90;;;;;;5039377;28;20417;-66
2021/10/07 04:45:30;;;;;;;9.68;5.43;;;10.40;99.90;;;;;;5039426;28;20022;-67
2021/10/07 04:47:58;;;;;;;11.52;5.80;;;10.40;99.90;;;;;;5039651;28;20108;-67
2021/10/07 04:50:25;;;;;;;10.82;5.78;;;10.40;99.90;;;;;;5021647;28;20317;-67
2021/10/07 04:52:54;;;;;;;9.13;5.45;;;10.40;99.90;;;;;;5021888;28;20306;-67
2021/10/07 04:55:21;;;;;;;11.73;5.72;;;10.40;99.90;;;;;;5039281;28;20032;-67
2021/10/07 04:57:49;;;;;;;12.38;4.30;;;10.40;99.90;;;;;;5021688;28;20033;-67
2021/10/07 05:00:16;;;;;;;9.13;5.10;;;10.40;99.90;;;;;;5022423;28;20116;-67
2021/10/07 05:02:46;;;;;;;10.82;5.30;;;10.40;99.90;;;;;;5040632;28;20028;-66
2021/10/07 05:05:13;;;;;;;9.20;5.75;;;10.40;99.90;;;;;;5040039;28;20029;-67
2021/10/07 05:07:43;;;;;;;9.32;4.97;;;10.30;99.90;;;;;;5040518;28;20018;-67
2021/10/07 05:10:12;;;;;;;10.57;5.38;;;10.30;99.90;;;;;;5040376;28;20018;-67
2021/10/07 05:12:40;;;;;;;11.85;5.72;;;10.30;99.90;;;;;;5039776;28;20392;-67
2021/10/07 05:15:11;;;;;;;10.75;5.00;;;10.30;99.90;;;;;;5039791;28;20060;-67
2021/10/07 05:17:39;;;;;;;11.00;5.35;;;10.30;99.90;;;;;;5040006;28;20022;-66
2021/10/07 05:20:07;;;;;;;11.25;5.55;;;10.30;99.90;;;;;;5021241;28;20025;-67
2021/10/07 05:22:35;;;;;;;9.43;5.00;;;10.20;99.90;;;;;;5038726;28;20414;-67
2021/10/07 05:25:03;;;;;;;10.38;5.15;;;10.20;99.90;;;;;;5039235;28;20021;-66
2021/10/07 05:27:31;;;;;;;10.55;5.43;;;10.20;99.90;;;;;;5038533;28;20017;-67
2021/10/07 05:29:59;;;;;;;11.30;5.22;;;10.30;99.90;;;;;;5039188;28;20030;-67
2021/10/07 05:32:26;;;;;;;11.00;5.53;;;10.20;99.90;;;;;;5039399;28;20321;-67
2021/10/07 05:34:54;;;;;;;11.50;5.32;;;10.20;99.90;;;;;;5020932;28;20026;-67
2021/10/07 05:37:22;;;;;;;10.85;5.28;;;10.20;99.90;;;;;;5038899;28;20475;-67
2021/10/07 05:39:49;;;;;;;10.15;6.10;;;10.30;99.90;;;;;;5038679;28;20418;-67
2021/10/07 05:42:17;;;;;;;11.10;5.00;;;10.30;99.90;;;;;;5039638;28;20032;-67
2021/10/07 05:44:44;;;;;;;12.02;5.53;;;10.30;99.90;;;;;;5039116;28;20318;-67
2021/10/07 05:47:12;;;;;;;10.13;5.28;;;10.30;99.90;;;;;;5022025;28;20025;-66
2021/10/07 05:49:39;;;;;;;11.90;5.55;;;10.30;99.90;;;;;;5039131;28;20045;-66
2021/10/07 05:52:07;;;;;;;13.10;6.00;;;10.30;99.90;;;;;;5039189;28;20422;-66
2021/10/07 05:54:34;;;;;;;15.50;6.32;;;10.30;99.90;;;;;;5039081;28;20022;-66
2021/10/07 05:57:04;;;;;;;10.82;6.05;;;10.30;99.90;;;;;;5039268;28;20033;-66
2021/10/07 05:59:32;;;;;;;9.30;5.85;;;10.40;99.90;;;;;;5038473;28;20119;-67
2021/10/07 06:02:00;;;;;;;11.10;5.78;;;10.40;99.90;;;;;;5038553;28;20071;-67
2021/10/07 06:04:27;;;;;;;9.52;5.30;;;10.40;99.90;;;;;;5037978;28;20020;-67
2021/10/07 06:06:54;;;;;;;10.48;5.93;;;10.40;99.90;;;;;;5038431;28;20100;-67
2021/10/07 06:09:22;;;;;;;9.35;4.90;;;10.50;99.90;;;;;;5020320;28;20372;-67
2021/10/07 06:11:50;;;;;;;8.10;4.78;;;10.50;99.90;;;;;;5037913;28;20021;-67
2021/10/07 06:14:17;;;;;;;7.63;4.13;;;10.50;99.90;;;;;;5020265;28;20052;-67
2021/10/07 06:16:46;;;;;;;10.60;4.75;;;10.50;99.90;;;;;;5038514;28;20041;-67
2021/10/07 06:19:16;;;;;;;10.88;4.32;;;10.60;99.90;;;;;;5037607;28;20021;-67
2021/10/07 06:21:44;;;;;;;8.15;4.15;;;10.60;99.90;;;;;;5038675;28;20341;-71
2021/10/07 06:24:12;;;;;;;7.07;4.55;;;10.60;99.90;;;;;;5038584;28;20017;-71
2021/10/07 06:26:40;;;;;;;7.43;4.35;;;10.70;99.90;;;;;;5039030;28;20467;-71
2021/10/07 06:29:08;;;;;;;9.82;4.68;;;10.70;99.90;;;;;;5038203;28;20106;-71
2021/10/07 06:31:36;;;;;;;7.25;4.68;;;10.80;99.90;;;;;;5038415;28;20152;-71
2021/10/07 06:34:05;;;;;;;7.40;4.10;;;10.90;99.90;;;;;;5038305;28;20029;-71
2021/10/07 06:36:33;;;;;;;9.30;5.32;;;10.90;99.90;;;;;;5020719;28;20075;-71
2021/10/07 06:39:00;;;;;;;10.75;4.88;;;11.00;99.90;;;;;;5038651;28;20032;-71
2021/10/07 06:41:28;;;;;;;8.77;5.05;;;11.00;99.90;;;;;;5037735;28;20021;-71
2021/10/07 06:43:56;;;;;;;9.32;5.18;;;11.10;99.90;;;;;;5037734;28;20033;-71
2021/10/07 06:46:27;;;;;;;9.32;5.35;;;11.10;99.90;;;;;;5037127;28;20167;-71
2021/10/07 06:48:55;;;;;;;10.10;5.15;;;11.20;99.90;;;;;;5037062;28;20068;-71
2021/10/07 06:51:29;;;;;;;8.35;5.07;;;11.20;99.90;;;;;;5037775;28;20048;-71
2021/10/07 06:54:00;;;;;;;10.00;5.10;;;11.30;99.90;;;;;;5037066;28;20045;-71
2021/10/07 06:56:29;;;;;;;11.57;6.38;;;11.40;99.90;;;;;;5037327;28;20025;-71
2021/10/07 06:58:57;;;;;;;12.55;7.78;;;11.40;99.90;;;;;;5036507;28;20025;-72
2021/10/07 07:01:27;;;;;;;14.35;5.78;;;11.50;99.90;;;;;;5037095;28;20072;-71
2021/10/07 07:03:56;;;;;;;9.93;6.35;;;11.60;99.90;;;;;;5019994;28;20026;-67
2021/10/07 07:06:25;;;;;;;10.02;6.10;;;11.60;99.90;;;;;;5037786;28;20048;-67
2021/10/07 07:08:52;;;;;;;8.90;5.75;;;11.70;99.90;;;;;;5037763;28;20044;-67
2021/10/07 07:11:25;;;;;;;10.20;6.03;;;11.70;99.90;;;;;;5020308;28;20032;-67
2021/10/07 07:13:54;;;;;;;8.93;5.55;;;11.80;99.90;;;;;;5037958;28;20029;-68
2021/10/07 07:16:22;;;;;;;10.07;5.50;;;11.80;99.90;;;;;;5037691;28;20032;-68
2021/10/07 07:18:49;;;;;;;10.85;6.18;;;11.90;99.90;;;;;;5037589;28;20036;-68
2021/10/07 07:21:18;;;;;;;11.25;6.18;;;11.90;99.90;;;;;;5020068;28;20321;-68
2021/10/07 07:23:46;;;;;;;10.82;6.20;;;12.00;99.90;;;;;;5037139;28;20432;-68
2021/10/07 07:26:14;;;;;;;13.57;6.68;;;12.00;99.90;;;;;;5036918;28;20108;-68
2021/10/07 07:28:42;;;;;;;9.95;6.63;;;12.10;99.90;;;;;;5015575;28;20447;-71
2021/10/07 07:31:09;;;;;;;13.13;6.28;;;12.10;99.90;;;;;;5017093;28;20318;-68
2021/10/07 07:33:36;;;;;;;11.93;6.65;;;12.20;99.90;;;;;;5016882;28;20025;-68
2021/10/07 07:36:04;;;;;;;10.10;6.43;;;12.20;99.90;;;;;;5017270;28;20026;-68
2021/10/07 07:38:31;;;;;;;10.55;6.80;;;12.30;99.90;;;;;;5016715;28;20053;-68
2021/10/07 07:40:59;;;;;;;13.35;6.78;;;12.30;99.90;;;;;;5016705;28;20037;-68
2021/10/07 07:43:26;;;;;;;14.93;7.20;;;12.40;99.90;;;;;;5017345;28;20065;-68
2021/10/07 07:45:54;;;;;;;12.15;7.57;;;12.50;99.90;;;;;;5017607;28;20046;-68
2021/10/07 07:48:22;;;;;;;12.07;7.30;;;12.50;99.90;;;;;;5017452;28;20433;-68
2021/10/07 07:50:49;;;;;;;12.93;7.25;;;12.60;99.90;;;;;;5017058;28;20080;-68
2021/10/07 07:53:17;;;;;;;11.10;6.50;;;12.60;99.90;;;;;;5001049;28;20022;-68
2021/10/07 07:55:44;;;;;;;12.43;7.20;;;12.70;99.90;;;;;;5017463;28;20033;-68
2021/10/07 07:58:12;;;;;;;10.88;6.82;;;12.70;99.90;;;;;;5018146;28;20018;-68
2021/10/07 08:00:41;;;;;;;11.65;7.90;;;12.80;99.90;;;;;;5017425;28;20045;-68
2021/10/07 08:03:09;;;;;;;10.80;6.45;;;12.90;99.90;;;;;;5016830;28;20079;-68
2021/10/07 08:05:37;;;;;;;10.02;6.53;;;12.90;99.90;;;;;;5015431;28;20037;-68
2021/10/07 08:08:05;;;;;;;12.20;6.97;;;13.00;99.90;;;;;;5017202;28;20423;-68
2021/10/07 08:10:32;;;;;;;13.13;7.65;;;13.10;99.90;;;;;;5017654;28;20026;-68
2021/10/07 08:13:00;;;;;;;10.07;6.30;;;13.20;99.90;;;;;;5020916;28;20097;-68
2021/10/07 08:15:28;;;;;;;10.93;6.40;;;13.30;99.90;;;;;;5020826;28;20112;-68
2021/10/07 08:17:57;;;;;;;13.00;7.50;;;13.30;99.90;;;;;;5020377;28;20421;-68
2021/10/07 08:20:24;;;;;;;12.15;7.50;;;13.30;99.90;;;;;;5020690;28;20034;-68
2021/10/07 08:22:51;;;;;;;14.85;6.85;;;13.30;99.90;;;;;;5020407;28;20418;-68
2021/10/07 08:25:19;;;;;;;12.30;7.18;;;13.30;99.90;;;;;;5019833;28;20057;-68
2021/10/07 08:27:48;;;;;;;12.70;7.07;;;13.20;99.90;;;;;;5024493;28;20057;-68
2021/10/07 08:30:17;;;;;;;11.05;6.97;;;13.10;99.90;;;;;;5041134;28;20033;-68
2021/10/07 08:32:45;;;;;;;11.90;7.30;;;13.10;99.90;;;;;;5040655;28;20409;-68
2021/10/07 08:35:13;;;;;;;11.18;7.28;;;13.00;99.90;;;;;;5023025;28;20087;-68
2021/10/07 08:37:41;;;;;;;12.20;8.05;;;12.90;99.90;;;;;;5040576;28;20029;-68
2021/10/07 08:40:10;;;;;;;12.15;7.35;;;12.90;99.90;;;;;;5041032;28;20025;-68
2021/10/07 08:42:40;;;;;;;10.80;6.88;;;12.90;99.90;;;;;;5040566;28;20021;-68
2021/10/07 08:45:09;;;;;;;11.10;7.28;;;12.80;99.90;;;;;;5039472;28;20445;-68
2021/10/07 08:47:46;;;;;;;13.27;7.10;;;12.80;99.90;;;;;;5039379;28;20079;-68
2021/10/07 08:50:17;;;;;;;12.52;6.13;;;12.80;99.90;;;;;;5039745;28;20424;-69
2021/10/07 08:52:45;;;;;;;13.60;7.80;;;12.80;99.90;;;;;;5039322;28;20040;-68
2021/10/07 08:55:13;;;;;;;12.00;7.35;;;12.90;99.90;;;;;;5039844;28;20056;-68
2021/10/07 08:57:40;;;;;;;9.98;6.40;;;13.00;99.90;;;;;;5021731;28;20421;-68
2021/10/07 09:00:13;;;;;;;12.98;7.53;;;13.10;99.90;;;;;;5039186;28;20033;-68
2021/10/07 09:02:41;;;;;;;12.05;7.20;;;13.30;99.90;;;;;;5021494;28;20321;-68
2021/10/07 09:05:15;;;;;;;11.82;7.05;;;13.40;99.90;;;;;;5021890;28;20496;-69
2021/10/07 09:08:04;;;;;;;10.70;5.82;;;13.50;99.90;;;;;;5040215;28;20096;-68
2021/10/07 09:10:55;;;;;;;8.70;5.60;;;13.60;99.90;;;;;;5040256;28;20475;-69
2021/10/07 09:13:26;;;;;;;7.30;4.47;;;13.60;99.90;;;;;;5040481;28;20025;-68
2021/10/07 09:16:00;;;;;;;7.82;4.88;;;13.70;99.90;;;;;;5039916;28;20048;-68
2021/10/07 09:18:30;;;;;;;8.32;4.90;;;13.80;99.90;;;;;;5039892;28;20025;-68
2021/10/07 09:20:59;;;;;;;7.65;4.20;;;13.90;99.90;;;;;;5040134;28;20109;-68
2021/10/07 09:23:35;;;;;;;5.85;3.63;;;14.10;99.90;;;;;;5039546;28;20113;-69
2021/10/07 09:26:06;;;;;;;5.45;3.78;;;14.30;99.90;;;;;;5038973;28;20052;-68
2021/10/07 09:28:53;;;;;;;5.93;3.85;;;14.40;99.90;;;;;;5038250;28;20124;-69
2021/10/07 09:31:32;;;;;;;7.82;4.18;;;14.60;99.90;;;;;;5039119;28;20026;-69
2021/10/07 09:34:06;;;;;;;6.32;3.90;;;14.70;99.90;;;;;;5038499;28;20060;-68
2021/10/07 09:36:34;;;;;;;8.00;4.38;;;14.80;99.90;;;;;;5038760;28;20024;-68
2021/10/07 09:39:04;;;;;;;7.75;5.38;;;14.90;99.90;;;;;;5039320;28;20287;-68
2021/10/07 09:41:33;;;;;;;8.65;5.43;;;15.00;99.90;;;;;;5020921;28;20029;-68
2021/10/07 09:44:07;;;;;;;6.82;4.72;;;15.10;99.90;;;;;;5038898;28;20318;-69
2021/10/07 09:46:39;;;;;;;6.90;5.00;;;15.20;99.90;;;;;;5038522;28;20099;-68
2021/10/07 09:49:09;;;;;;;6.75;4.50;;;15.40;99.90;;;;;;5039078;28;20018;-68
2021/10/07 09:51:47;;;;;;;7.88;4.90;;;15.40;99.90;;;;;;5021627;28;20025;-68
2021/10/07 09:54:20;;;;;;;6.45;4.47;;;15.40;99.90;;;;;;5039098;28;20021;-68
2021/10/07 09:57:03;;;;;;;6.07;3.45;;;15.50;99.90;;;;;;5039567;28;20033;-69
2021/10/07 09:59:35;;;;;;;5.10;3.53;;;15.50;99.90;;;;;;5039059;28;20028;-68
2021/10/07 10:02:03;;;;;;;6.45;3.40;;;15.50;99.90;;;;;;5038916;28;20031;-68
2021/10/07 10:04:31;;;;;;;5.55;3.55;;;15.60;99.90;;;;;;5038812;28;20021;-69
2021/10/07 10:06:59;;;;;;;5.22;3.25;;;15.70;99.90;;;;;;5038901;28;20028;-69
2021/10/07 10:09:27;;;;;;;7.47;3.63;;;15.60;99.90;;;;;;5037909;28;20326;-68
2021/10/07 10:11:55;;;;;;;6.28;3.70;;;15.60;99.90;;;;;;5038458;28;20021;-68
2021/10/07 10:14:23;;;;;;;5.70;3.55;;;15.70;99.90;;;;;;5037731;28;20433;-69
2021/10/07 10:16:54;;;;;;;6.28;3.30;;;15.70;99.90;;;;;;5020351;28;20022;-68
2021/10/07 10:19:21;;;;;;;5.10;3.65;;;15.80;99.90;;;;;;5037653;28;20417;-69
2021/10/07 10:21:53;;;;;;;7.65;4.22;;;15.80;99.90;;;;;;5037598;28;20032;-68
2021/10/07 10:24:22;;;;;;;5.13;3.90;;;15.90;99.90;;;;;;5037851;28;20057;-68
2021/10/07 10:27:02;;;;;;;5.05;3.45;;;15.90;99.90;;;;;;5020647;28;20048;-69
2021/10/07 10:29:33;;;;;;;4.38;3.15;;;16.00;99.90;;;;;;5037593;28;20045;-68
2021/10/07 10:32:03;;;;;;;5.75;3.80;;;16.10;99.90;;;;;;5038308;28;20417;-68
2021/10/07 10:34:40;;;;;;;5.95;3.47;;;16.30;99.90;;;;;;5037512;28;20032;-68
2021/10/07 10:37:09;;;;;;;7.05;3.60;;;16.40;99.90;;;;;;5038433;28;20028;-68
2021/10/07 10:39:38;;;;;;;5.70;4.13;;;16.50;99.90;;;;;;5038264;28;20051;-68
2021/10/07 10:42:16;;;;;;;8.32;4.38;;;16.70;99.90;;;;;;5020613;28;20017;-68
2021/10/07 10:44:58;;;;;;;5.95;4.05;;;16.80;99.90;;;;;;5038683;28;20045;-67
2021/10/07 10:47:27;;;;;;;6.32;4.03;;;16.90;99.90;;;;;;5038288;28;20041;-67
2021/10/07 10:50:00;;;;;;;8.80;3.95;;;17.00;99.90;;;;;;5037234;28;20060;-67
2021/10/07 10:52:54;;;;;;;5.68;3.65;;;17.10;99.90;;;;;;5037457;28;20425;-67
2021/10/07 10:55:27;;;;;;;6.68;3.88;;;17.20;99.90;;;;;;5036958;28;20022;-67
2021/10/07 10:58:04;;;;;;;6.47;3.92;;;17.10;98.90;;;;;;5019664;28;20025;-67
2021/10/07 11:00:37;;;;;;;5.95;3.63;;;17.10;99.30;;;;;;5036991;28;20104;-67
2021/10/07 11:03:14;;;;;;;5.22;3.47;;;17.00;99.20;;;;;;5036846;28;20420;-67
2021/10/07 11:06:03;;;;;;;6.68;3.60;;;17.00;99.30;;;;;;5037394;28;20021;-67
2021/10/07 11:08:32;;;;;;;6.07;3.83;;;17.10;99.60;;;;;;5037235;28;20322;-68
2021/10/07 11:11:02;;;;;;;6.72;3.88;;;17.10;99.70;;;;;;5037185;28;20021;-67
2021/10/07 11:13:33;;;;;;;5.22;3.47;;;17.20;99.10;;;;;;5038245;28;20025;-68
2021/10/07 11:16:05;;;;;;;5.88;4.15;;;17.30;99.60;;;;;;5037917;28;20026;-67
2021/10/07 11:18:38;;;;;;;7.75;4.20;;;17.30;99.50;;;;;;5037810;28;20037;-67
2021/10/07 11:21:15;;;;;;;6.80;4.18;;;17.40;99.60;;;;;;5020020;28;20029;-68
2021/10/07 11:23:50;;;;;;;7.55;3.80;;;17.50;99.70;;;;;;5038002;28;20021;-68
2021/10/07 11:26:19;;;;;;;5.88;3.47;;;17.60;99.50;;;;;;5037650;28;20017;-68
2021/10/07 11:28:48;;;;;;;6.35;3.95;;;17.60;98.30;;;;;;5037204;28;20048;-68
2021/10/07 11:31:19;;;;;;;7.70;3.65;;;17.60;97.70;;;;;;5036782;28;20022;-68
2021/10/07 11:33:52;;;;;;;4.60;3.22;;;17.60;96.80;;;;;;5036659;28;20061;-68
2021/10/07 11:36:23;;;;;;;4.07;3.00;;;17.50;96.60;;;;;;5037168;28;20374;-68
2021/10/07 11:38:52;;;;;;;5.22;3.38;;;17.40;97.40;;;;;;5036991;28;20306;-68
2021/10/07 11:41:24;;;;;;;7.05;3.58;;;17.40;98.10;;;;;;5036472;28;20022;-68
2021/10/07 11:43:52;;;;;;;5.32;3.22;;;17.40;97.80;;;;;;5036308;28;20107;-68
2021/10/07 11:46:20;;;;;;;6.25;3.25;;;17.40;98.40;;;;;;5025522;28;20313;-68
2021/10/07 11:48:50;;;;;;;6.07;4.15;;;17.30;97.70;;;;;;5043436;28;20028;-68
2021/10/07 11:51:22;;;;;;;6.47;3.58;;;17.30;97.00;;;;;;5042847;28;20026;-69
2021/10/07 11:53:51;;;;;;;4.60;3.30;;;17.30;96.80;;;;;;5025677;28;20306;-72
2021/10/07 11:56:27;;;;;;;6.07;3.70;;;17.40;97.20;;;;;;5044426;28;20086;-69
2021/10/07 11:58:57;;;;;;;5.25;3.70;;;17.50;97.20;;;;;;5043969;28;20408;-74
2021/10/07 12:01:34;;;;;;;7.88;4.15;;;17.60;97.10;;;;;;5043730;28;20025;-70
2021/10/07 12:04:03;;;;;;;6.47;4.00;;;17.60;97.00;;;;;;5043558;28;20018;-70
2021/10/07 12:06:33;;;;;;;6.40;3.42;;;17.60;96.50;;;;;;5043864;28;20018;-70
2021/10/07 12:09:03;;;;;;;5.95;3.20;;;17.60;96.70;;;;;;5043876;28;20429;-70
2021/10/07 12:11:34;;;;;;;5.88;3.75;;;17.50;96.80;;;;;;5043919;28;20310;-70
2021/10/07 12:14:03;;;;;;;6.15;3.20;;;17.50;95.90;;;;;;5042958;28;20017;-70
2021/10/07 12:16:39;;;;;;;4.53;3.15;;;17.40;96.40;;;;;;5042828;28;20021;-70
2021/10/07 12:19:16;;;;;;;6.00;2.92;;;17.40;96.50;;;;;;5042519;28;20025;-70
2021/10/07 12:21:55;;;;;;;11.60;3.53;;;17.40;97.10;;;;;;5042619;28;20049;-70
2021/10/07 12:24:27;;;;;;;5.20;3.70;;;17.50;96.50;;;;;;5042476;28;20030;-66
2021/10/07 12:26:57;;;;;;;5.68;3.65;;;17.50;96.20;;;;;;5042433;28;20032;-65
2021/10/07 12:29:27;;;;;;;5.45;3.13;;;17.50;95.70;;;;;;5042399;28;20054;-65
2021/10/07 12:32:05;;;;;;;5.18;3.15;;;17.40;95.80;;;;;;5025007;28;20025;-66
2021/10/07 12:34:39;;;;;;;5.30;3.17;;;17.30;97.10;;;;;;5042768;28;20154;-65
2021/10/07 12:37:12;;;;;;;5.88;3.70;;;17.30;97.60;;;;;;5043969;28;20017;-66
2021/10/07 12:39:41;;;;;;;5.82;3.22;;;17.30;96.70;;;;;;5043922;28;20025;-66
2021/10/07 12:42:20;;;;;;;8.93;3.40;;;17.20;96.80;;;;;;5025808;28;20432;-66
2021/10/07 12:44:57;;;;;;;5.70;3.38;;;17.10;97.60;;;;;;5043718;28;20025;-66
2021/10/07 12:47:30;;;;;;;6.50;3.22;;;17.10;97.30;;;;;;5043384;28;20022;-66
2021/10/07 12:49:59;;;;;;;5.97;3.30;;;17.10;97.90;;;;;;5043159;28;20402;-66
2021/10/07 12:52:38;;;;;;;4.65;3.20;;;17.10;96.50;;;;;;5025765;28;20030;-66
2021/10/07 12:55:16;;;;;;;8.65;2.92;;;17.10;97.40;;;;;;5042729;28;20384;-66
2021/10/07 12:57:52;;;;;;;4.05;2.70;;;17.10;97.60;;;;;;5038747;28;20368;-66